createdAt,value
2023-01-07T00:01:52.629Z,96309.81
2023-01-07T00:06:54.600Z,96301.97
2023-01-07T00:11:56.493Z,96303.53
2023-01-07T00:16:58.438Z,96306.66
2023-01-07T00:22:00.601Z,96303.50
2023-01-07T00:27:03.599Z,96297.28
2023-01-07T00:32:05.560Z,96293.75
2023-01-07T00:37:26.535Z,96292.19
2023-01-07T00:42:47.211Z,96286.28
2023-01-07T00:47:53.635Z,96287.09
2023-01-07T00:52:56.074Z,96280.44
2023-01-07T00:58:00.514Z,96277.72
2023-01-07T01:03:02.730Z,96279.66
2023-01-07T01:08:04.843Z,96276.13
2023-01-07T01:13:06.753Z,96278.44
2023-01-07T01:18:08.853Z,96271.06
2023-01-07T01:23:12.169Z,96276.53
2023-01-07T01:28:16.045Z,96279.63
2023-01-07T01:33:18.060Z,96279.63
2023-01-07T01:38:20.921Z,96272.59
2023-01-07T01:43:40.770Z,96272.59
2023-01-07T01:48:54.290Z,96274.16
2023-01-07T01:53:56.985Z,96270.66
2023-01-07T01:59:05.630Z,96271.44
2023-01-07T02:04:12.088Z,96272.22
2023-01-07T02:09:14.557Z,96266.34
2023-01-07T02:14:28.839Z,96264.00
2023-01-07T02:19:52.160Z,96261.25
2023-01-07T02:25:23.865Z,96251.88
2023-01-07T02:31:14.847Z,96243.28
2023-01-07T02:36:35.426Z,96233.56
2023-01-07T02:41:49.790Z,96243.28
2023-01-07T02:46:59.651Z,96228.88
2023-01-07T02:52:20.062Z,96226.91
2023-01-07T02:57:25.071Z,96227.72
2023-01-07T03:02:51.221Z,96223.41
2023-01-07T03:08:02.072Z,96210.53
2023-01-07T03:13:15.077Z,96211.34
2023-01-07T03:18:25.964Z,96209.38
2023-01-07T03:23:30.308Z,96205.88
2023-01-07T03:28:37.576Z,96199.63
2023-01-07T03:33:48.113Z,96193.75
2023-01-07T03:38:52.595Z,96178.91
2023-01-07T03:43:56.232Z,96177.34
2023-01-07T03:48:58.142Z,96172.25
2023-01-07T03:54:00.272Z,96176.16
2023-01-07T03:59:02.851Z,96168.75
2023-01-07T04:04:05.090Z,96165.22
2023-01-07T04:09:07.793Z,96159.78
2023-01-07T04:14:13.346Z,96159.41
2023-01-07T04:19:15.248Z,96153.13
2023-01-07T04:24:17.284Z,96144.56
2023-01-07T04:29:21.178Z,96139.47
2023-01-07T04:34:24.619Z,96138.69
2023-01-07T04:39:27.096Z,96139.47
2023-01-07T04:44:29.115Z,96127.00
2023-01-07T04:49:31.861Z,96127.38
2023-01-07T04:54:33.993Z,96124.66
2023-01-07T04:59:36.083Z,96121.16
2023-01-07T05:04:38.533Z,96116.84
2023-01-07T05:09:41.528Z,96112.19
2023-01-07T05:14:43.797Z,96104.75
2023-01-07T05:19:46.564Z,96108.66
2023-01-07T05:24:49.414Z,96105.16
2023-01-07T05:29:52.450Z,96096.16
2023-01-07T05:34:54.463Z,96086.06
2023-01-07T05:39:56.902Z,96082.91
2023-01-07T05:44:58.954Z,96078.22
2023-01-07T05:50:00.788Z,96075.50
2023-01-07T05:55:04.422Z,96077.47
2023-01-07T06:00:07.068Z,96064.22
2023-01-07T06:05:13.814Z,96062.63
2023-01-07T06:10:15.739Z,96069.25
2023-01-07T06:15:18.454Z,96071.22
2023-01-07T06:20:21.748Z,96071.22
2023-01-07T06:25:23.663Z,96072.00
2023-01-07T06:30:27.287Z,96058.72
2023-01-07T06:35:30.627Z,96059.50
2023-01-07T06:40:33.055Z,96046.66
2023-01-07T06:45:34.966Z,96045.06
2023-01-07T06:50:36.719Z,96037.66
2023-01-07T06:55:38.657Z,96037.66
2023-01-07T07:00:40.473Z,96038.84
2023-01-07T07:05:42.695Z,96033.75
2023-01-07T07:10:44.824Z,96025.94
2023-01-07T07:15:46.755Z,96028.28
2023-01-07T07:20:49.054Z,96033.38
2023-01-07T07:25:52.412Z,96036.47
2023-01-07T07:30:55.894Z,96031.81
2023-01-07T07:35:59.367Z,96028.28
2023-01-07T07:41:01.390Z,96030.66
2023-01-07T07:46:03.473Z,96024.41
2023-01-07T07:51:05.552Z,96025.19
2023-01-07T07:56:08.855Z,96017.00
2023-01-07T08:01:11.970Z,96010.00
2023-01-07T08:06:14.112Z,96011.53
2023-01-07T08:11:16.151Z,96003.72
2023-01-07T08:16:18.602Z,96001.81
2023-01-07T08:21:20.435Z,95997.91
2023-01-07T08:26:22.249Z,95985.81
2023-01-07T08:31:24.028Z,95990.13
2023-01-07T08:36:26.029Z,95986.22
2023-01-07T08:41:28.011Z,95987.38
2023-01-07T08:46:29.907Z,95978.84
2023-01-07T08:51:32.048Z,95975.69
2023-01-07T08:56:33.951Z,95974.56
2023-01-07T09:01:37.273Z,95971.81
2023-01-07T09:06:39.663Z,95966.78
2023-01-07T09:11:41.537Z,95958.22
2023-01-07T09:16:43.418Z,95954.31
2023-01-07T09:21:45.400Z,95949.63
2023-01-07T09:26:47.191Z,95953.53
2023-01-07T09:31:49.121Z,95948.47
2023-01-07T09:36:50.857Z,95953.97
2023-01-07T09:42:09.761Z,95945.00
2023-01-07T09:47:14.202Z,95934.84
2023-01-07T09:52:22.638Z,95935.25
2023-01-07T09:57:24.431Z,95934.88
2023-01-07T10:02:44.205Z,95930.22
2023-01-07T10:08:30.450Z,95924.78
2023-01-07T10:13:33.566Z,95913.91
2023-01-07T10:18:55.583Z,95894.03
2023-01-07T10:24:14.421Z,95893.25
2023-01-07T10:29:32.483Z,95883.13
2023-01-07T10:34:44.648Z,95880.75
2023-01-07T10:40:00.564Z,95873.72
2023-01-07T10:45:41.097Z,95866.69
2023-01-07T10:50:57.422Z,95859.63
2023-01-07T10:56:05.272Z,95856.06
2023-01-07T11:01:08.971Z,95850.19
2023-01-07T11:06:15.385Z,95841.97
2023-01-07T11:11:21.432Z,95827.13
2023-01-07T11:16:28.532Z,95813.03
2023-01-07T11:21:42.705Z,95809.50
2023-01-07T11:26:46.786Z,95807.91
2023-01-07T11:31:48.958Z,95786.72
2023-01-07T11:36:52.954Z,95791.78
2023-01-07T11:42:01.189Z,95772.97
2023-01-07T11:47:03.511Z,95772.56
2023-01-07T11:52:05.675Z,95761.97
2023-01-07T11:57:21.771Z,95753.75
2023-01-07T12:02:27.153Z,95733.44
2023-01-07T12:07:29.120Z,95737.31
2023-01-07T12:12:40.141Z,95730.63
2023-01-07T12:17:46.545Z,95725.50
2023-01-07T12:23:13.174Z,95713.28
2023-01-07T12:28:19.046Z,95704.56
2023-01-07T12:33:46.127Z,95696.59
2023-01-07T12:38:51.590Z,95700.03
2023-01-07T12:44:02.966Z,95693.75
2023-01-07T12:49:23.211Z,95678.84
2023-01-07T12:54:45.108Z,95676.53
2023-01-07T12:59:59.474Z,95662.38
2023-01-07T13:05:26.428Z,95654.03
2023-01-07T13:10:41.032Z,95654.41
2023-01-07T13:15:42.821Z,95663.75
2023-01-07T13:21:07.736Z,95658.19
2023-01-07T13:26:33.566Z,95660.44
2023-01-07T13:31:58.774Z,95660.75
2023-01-07T13:37:22.367Z,95652.78
2023-01-07T13:42:45.033Z,95643.25
2023-01-07T13:47:57.458Z,95640.44
2023-01-07T13:53:03.631Z,95641.56
2023-01-07T13:58:34.154Z,95628.59
2023-01-07T14:03:53.292Z,95629.31
2023-01-07T14:09:07.421Z,95629.66
2023-01-07T14:14:38.392Z,95622.56
2023-01-07T14:19:59.084Z,95626.88
2023-01-07T14:25:30.784Z,95632.31
2023-01-07T14:30:44.442Z,95619.78
2023-01-07T14:35:56.717Z,95630.78
2023-01-07T14:47:44.564Z,95619.00
2023-01-07T14:52:57.160Z,95615.91
2023-01-07T14:58:23.597Z,95619.13
2023-01-07T15:03:44.568Z,95610.91
2023-01-07T15:09:20.361Z,95602.75
2023-01-07T15:14:49.301Z,95612.22
2023-01-07T15:19:52.275Z,95603.69
2023-01-07T15:25:24.974Z,95593.66
2023-01-07T15:30:58.507Z,95591.50
2023-01-07T15:36:04.657Z,95598.34
2023-01-07T15:41:06.494Z,95601.25
2023-01-07T15:46:08.829Z,95613.16
2023-01-07T15:51:18.528Z,95612.13
2023-01-07T15:56:22.439Z,95614.63
2023-01-07T16:01:25.396Z,95614.69
2023-01-07T16:06:39.467Z,95607.38
2023-01-07T16:11:42.043Z,95610.22
2023-01-07T16:16:44.033Z,95608.34
2023-01-07T16:21:56.869Z,95600.97
2023-01-07T16:27:05.263Z,95594.38
2023-01-07T16:32:07.841Z,95589.44
2023-01-07T16:37:16.175Z,95564.88
2023-01-07T16:42:25.163Z,95577.09
2023-01-07T16:47:34.547Z,95579.88
2023-01-07T16:52:36.487Z,95578.38
2023-01-07T16:57:42.562Z,95581.53
2023-01-07T17:02:55.605Z,95581.59
2023-01-07T17:08:02.010Z,95582.00
2023-01-07T17:13:32.188Z,95570.34
2023-01-07T17:18:47.258Z,95577.75
2023-01-07T17:23:53.656Z,95582.88
2023-01-07T17:29:03.281Z,95575.47
2023-01-07T17:34:16.469Z,95577.03
2023-01-07T17:39:28.857Z,95587.19
2023-01-07T17:44:35.215Z,95587.59
2023-01-07T17:49:39.628Z,95589.56
2023-01-07T17:54:45.605Z,95590.75
2023-01-07T17:59:51.086Z,95591.53
2023-01-07T18:04:53.402Z,95592.34
2023-01-07T18:09:59.906Z,95582.94
2023-01-07T18:15:29.760Z,95577.50
2023-01-07T18:20:41.066Z,95570.50
2023-01-07T18:31:05.901Z,95567.41
2023-01-07T18:36:12.593Z,95582.63
2023-01-07T18:41:14.984Z,95574.06
2023-01-07T18:46:17.915Z,95569.78
2023-01-07T18:51:20.107Z,95569.41
2023-01-07T18:56:22.721Z,95572.53
2023-01-07T19:01:28.699Z,95575.28
2023-01-07T19:06:30.998Z,95571.38
2023-01-07T19:11:33.206Z,95585.00
2023-01-07T19:16:37.717Z,95574.47
2023-01-07T19:21:42.157Z,95588.13
2023-01-07T19:26:44.634Z,95578.78
2023-01-07T19:31:47.514Z,95577.59
2023-01-07T19:36:50.649Z,95602.13
2023-01-07T19:41:58.822Z,95599.41
2023-01-07T19:47:01.913Z,95594.72
2023-01-07T19:52:04.139Z,95586.16
2023-01-07T19:57:06.303Z,95577.56
2023-01-07T20:02:08.856Z,95584.97
2023-01-07T20:07:12.142Z,95575.22
2023-01-07T20:12:14.021Z,95565.84
2023-01-07T20:17:16.271Z,95568.16
2023-01-07T20:22:18.467Z,95560.31
2023-01-07T20:27:20.643Z,95554.09
2023-01-07T20:32:22.598Z,95560.28
2023-01-07T20:37:28.365Z,95560.69
2023-01-07T20:42:32.177Z,95549.00
2023-01-07T20:47:34.683Z,95546.28
2023-01-07T20:52:36.743Z,95528.34
2023-01-07T20:57:38.888Z,95520.19
2023-01-07T21:02:42.121Z,95526.78
2023-01-07T21:07:44.306Z,95524.06
2023-01-07T21:12:47.488Z,95510.44
2023-01-07T21:17:49.594Z,95503.03
2023-01-07T21:22:52.579Z,95510.81
2023-01-07T21:27:55.399Z,95510.41
2023-01-07T21:32:58.885Z,95511.56
2023-01-07T21:38:02.756Z,95508.84
2023-01-07T21:43:05.151Z,95490.56
2023-01-07T21:48:07.078Z,95495.97
2023-01-07T21:53:09.401Z,95492.84
2023-01-07T21:58:11.272Z,95495.94
2023-01-07T22:03:14.139Z,95493.59
2023-01-07T22:08:16.687Z,95493.19
2023-01-07T22:13:19.163Z,95491.19
2023-01-07T22:18:21.954Z,95491.56
2023-01-07T22:23:24.702Z,95482.22
2023-01-07T22:28:27.852Z,95486.06
2023-01-07T22:33:30.098Z,95499.31
2023-01-07T22:38:33.786Z,95502.03
2023-01-07T22:43:36.675Z,95503.94
2023-01-07T22:48:40.246Z,95506.66
2023-01-07T22:53:42.433Z,95494.22
2023-01-07T22:58:44.765Z,95497.72
2023-01-07T23:03:47.036Z,95489.53
2023-01-07T23:08:49.156Z,95490.28
2023-01-07T23:13:51.048Z,95488.69
2023-01-07T23:18:53.721Z,95474.69
2023-01-07T23:23:56.096Z,95473.09
2023-01-07T23:28:58.419Z,95468.44
2023-01-07T23:34:02.318Z,95450.53
2023-01-07T23:39:05.524Z,95455.97
2023-01-07T23:44:07.802Z,95441.16
2023-01-07T23:49:09.644Z,95434.16
2023-01-07T23:54:13.234Z,95411.22
2023-01-07T23:59:15.308Z,95415.84
